Mercedita, PR

8:03 PM AST on June 03, 2015 (GMT -0400)
Manolo Weather | | Change Station
CLOSE
Current Station
Personal Weather Station
Location: Ponce, PONCE
Elevation: 88 ft
Nearby Weather Stations

Elev 88 ft 18.01 °N, 66.59 °W | Updated 18 minutes ago

Mostly Cloudy
Mostly Cloudy
82.2 °F
Feels Like 90 °F
N
3.1
Wind Variable Wind from SSE
Gusts 5.4 mph

Today
High -- | Low -- °F
--% Chance of Precip.
Yesterday
High -- | Low -- °F
Precip. -- in
5:49 AM 6:59 PM
Full, 98% visible
Pressure 29.92 in
Visibility 10.0 miles
Clouds Few 3000 ft
Mostly Cloudy 6000 ft
Heat Index 90 °F
Dew Point 76 °F
Humidity 82%
Rainfall in
Snow Depth Not available.
UV 0 out of 12
Pollen Not available.
Air Quality Not available.
Flu Activity Local Activity
METAR TJPS 032350Z 11006KT 10SM FEW030 BKN060 28/24 A2992

More Conditions Fewer Conditions

Pressure 29.92 in
Visibility 10.0 miles
Clouds Few 3000 ft
Mostly Cloudy 6000 ft
Heat Index 90 °F
Dew Point 76 °F
Humidity 82%
Rainfall in
Snow Depth Not available.
UV 0 out of 12
Pollen Not available.
Air Quality Not available.
Flu Activity Local Activity
METAR TJPS 032350Z 11006KT 10SM FEW030 BKN060 28/24 A2992

More Conditions Fewer Conditions

10-Day Weather Forecast

×

Almanac

Astronomy

Jun. 03, 2015 Rise Set
Actual Time
Civil Twilight
Nautical Twilight
Astronomical Twilight
Moon
Length of Visible Light
Length of Day
Tomorrow will be .
, % of the Moon is Illuminated

Today's Extremes

State Highs State Lows

Community

WunderPhotos

Upload Photos

1,826,306 photos uploaded!

WunderBlogs® & News

Nearby

Air Quality

  Air Quality AQ Index Pollutant
Not available.

Snow Depth

Station Depth Elevation

Earthquake Activity

City Distance Mag. Time & Date
Minimum magnitude displayed is 2.5.

Coastal Water Temperatures

Place Temperature

Stations

Nearby Weather Stations

Station Location Temp. Windchill Dew Point Humidity Wind Precip. Elev Updated Type